createdAt,value
2023-06-04T00:02:16.572Z,12.34
2023-06-04T00:04:43.649Z,12.34
2023-06-04T00:07:12.949Z,12.45
2023-06-04T00:09:40.241Z,12.41
2023-06-04T00:12:07.928Z,12.30
2023-06-04T00:14:35.039Z,12.15
2023-06-04T00:17:01.911Z,11.97
2023-06-04T00:19:28.568Z,11.97
2023-06-04T00:21:55.716Z,12.17
2023-06-04T00:24:23.793Z,12.05
2023-06-04T00:26:50.831Z,11.99
2023-06-04T00:29:17.500Z,11.96
2023-06-04T00:31:44.228Z,11.97
2023-06-04T00:34:11.817Z,11.80
2023-06-04T00:36:41.216Z,11.72
2023-06-04T00:39:08.886Z,11.89
2023-06-04T00:41:35.462Z,11.73
2023-06-04T00:44:02.751Z,11.78
2023-06-04T00:58:18.518Z,11.07
2023-06-04T01:00:46.112Z,11.14
2023-06-04T01:03:18.331Z,11.05
2023-06-04T01:06:00.941Z,11.03
2023-06-04T01:08:28.400Z,10.91
2023-06-04T01:10:56.656Z,10.76
2023-06-04T01:13:23.905Z,10.71
2023-06-04T01:15:50.471Z,10.82
2023-06-04T01:18:28.935Z,10.67
2023-06-04T01:21:00.636Z,11.00
2023-06-04T01:23:34.749Z,10.68
2023-06-04T01:26:05.580Z,10.72
2023-06-04T01:28:35.199Z,10.57
2023-06-04T01:31:03.049Z,10.51
2023-06-04T01:33:30.066Z,10.54
2023-06-04T01:35:59.195Z,10.48
2023-06-04T01:38:26.071Z,10.43
2023-06-04T01:40:57.078Z,10.45
2023-06-04T01:43:24.153Z,10.33
2023-06-04T01:45:50.824Z,10.28
2023-06-04T01:48:17.685Z,10.28
2023-06-04T01:50:44.326Z,10.24
2023-06-04T01:53:11.661Z,10.15
2023-06-04T01:55:38.910Z,10.03
2023-06-04T01:58:06.012Z,10.09
2023-06-04T02:00:32.536Z,10.09
2023-06-04T02:03:00.532Z,10.06
2023-06-04T02:05:27.720Z,9.90
2023-06-04T02:07:54.398Z,9.92
2023-06-04T02:10:21.556Z,10.02
2023-06-04T02:13:05.977Z,9.91
2023-06-04T02:15:33.258Z,9.70
2023-06-04T02:18:17.425Z,9.67
2023-06-04T02:20:46.020Z,9.73
2023-06-04T02:23:14.275Z,9.90
2023-06-04T02:25:41.165Z,9.79
2023-06-04T02:28:09.070Z,9.66
2023-06-04T02:30:35.615Z,9.79
2023-06-04T02:33:02.335Z,9.63
2023-06-04T02:35:30.058Z,9.41
2023-06-04T02:38:00.267Z,9.45
2023-06-04T02:40:27.169Z,9.45
2023-06-04T02:42:54.317Z,9.40
2023-06-04T02:45:22.296Z,9.27
2023-06-04T02:47:49.004Z,9.34
2023-06-04T02:50:16.761Z,9.27
2023-06-04T02:52:45.304Z,9.37
2023-06-04T02:55:15.798Z,9.37
2023-06-04T02:57:44.145Z,9.22
2023-06-04T03:00:13.272Z,9.13
2023-06-04T03:02:45.088Z,9.19
2023-06-04T03:05:14.112Z,9.22
2023-06-04T03:07:44.373Z,9.13
2023-06-04T03:10:12.784Z,9.33
2023-06-04T03:12:40.816Z,9.35
2023-06-04T03:15:08.000Z,9.26
2023-06-04T03:17:34.604Z,9.11
2023-06-04T03:20:02.349Z,9.02
2023-06-04T03:22:29.330Z,8.82
2023-06-04T03:24:56.122Z,8.74
2023-06-04T03:27:23.207Z,8.67
2023-06-04T03:29:49.765Z,8.62
2023-06-04T03:32:17.126Z,8.64
2023-06-04T03:34:44.779Z,8.76
2023-06-04T03:37:11.417Z,8.75
2023-06-04T03:39:38.368Z,8.71
2023-06-04T03:42:05.859Z,8.78
2023-06-04T03:44:32.418Z,8.87
2023-06-04T03:46:59.259Z,8.74
2023-06-04T03:49:26.018Z,8.80
2023-06-04T03:51:53.028Z,8.91
2023-06-04T03:54:20.253Z,8.83
2023-06-04T03:56:47.826Z,8.88
2023-06-04T03:59:14.884Z,8.79
2023-06-04T04:01:42.702Z,8.78
2023-06-04T04:04:09.687Z,9.00
2023-06-04T04:06:36.436Z,8.97
2023-06-04T04:09:04.982Z,9.00
2023-06-04T04:11:31.682Z,8.90
2023-06-04T04:13:59.073Z,8.77
2023-06-04T04:16:26.429Z,8.71
2023-06-04T04:18:53.251Z,8.77
2023-06-04T04:21:19.896Z,8.96
2023-06-04T04:23:46.902Z,8.95
2023-06-04T04:26:18.050Z,9.02
2023-06-04T04:28:45.043Z,9.03
2023-06-04T04:31:11.886Z,8.84
2023-06-04T04:33:40.620Z,8.82
2023-06-04T04:36:13.699Z,8.78
2023-06-04T04:38:41.043Z,8.94
2023-06-04T04:41:08.633Z,9.08
2023-06-04T04:43:37.222Z,9.15
2023-06-04T04:46:04.241Z,9.30
2023-06-04T04:48:31.089Z,9.27
2023-06-04T04:50:58.398Z,9.10
2023-06-04T04:53:25.042Z,9.02
2023-06-04T04:55:51.619Z,9.03
2023-06-04T04:58:18.754Z,9.25
2023-06-04T05:00:45.189Z,9.13
2023-06-04T05:03:12.014Z,9.20
2023-06-04T05:05:38.627Z,9.18
2023-06-04T05:08:05.638Z,9.27
2023-06-04T05:10:32.420Z,9.49
2023-06-04T05:13:00.789Z,9.45
2023-06-04T05:15:27.791Z,9.43
2023-06-04T05:17:54.632Z,9.50
2023-06-04T05:20:21.962Z,9.44
2023-06-04T05:22:48.653Z,9.51
2023-06-04T05:25:15.827Z,9.52
2023-06-04T05:27:42.704Z,9.48
2023-06-04T05:30:10.258Z,9.57
2023-06-04T05:32:41.533Z,9.77
2023-06-04T05:35:09.077Z,9.90
2023-06-04T05:37:39.021Z,10.35
2023-06-04T05:40:07.194Z,10.34
2023-06-04T05:42:34.184Z,10.33
2023-06-04T05:45:00.930Z,10.61
2023-06-04T05:47:30.097Z,10.60
2023-06-04T05:49:57.195Z,10.43
2023-06-04T05:52:24.203Z,10.74
2023-06-04T05:54:51.029Z,10.78
2023-06-04T05:57:17.684Z,10.82
2023-06-04T05:59:44.225Z,10.78
2023-06-04T06:02:10.798Z,10.89
2023-06-04T06:04:37.564Z,11.07
2023-06-04T06:07:04.889Z,11.17
2023-06-04T06:09:31.473Z,11.36
2023-06-04T06:11:59.197Z,11.29
2023-06-04T06:14:26.439Z,11.56
2023-06-04T06:16:55.019Z,11.78
2023-06-04T06:19:24.134Z,11.61
2023-06-04T06:21:50.612Z,11.75
2023-06-04T06:24:17.711Z,11.90
2023-06-04T06:26:45.358Z,11.77
2023-06-04T06:29:11.963Z,11.81
2023-06-04T06:31:39.004Z,11.94
2023-06-04T06:34:06.494Z,12.07
2023-06-04T06:36:33.853Z,12.15
2023-06-04T06:39:00.678Z,12.47
2023-06-04T06:41:27.907Z,12.48
2023-06-04T06:43:54.434Z,12.49
2023-06-04T06:46:21.228Z,12.49
2023-06-04T06:48:49.174Z,12.62
2023-06-04T06:51:16.074Z,12.62
2023-06-04T06:53:43.108Z,12.66
2023-06-04T06:56:09.840Z,13.06
2023-06-04T06:58:36.606Z,13.18
2023-06-04T07:01:03.084Z,12.93
2023-06-04T07:03:29.854Z,13.02
2023-06-04T07:05:56.432Z,13.09
2023-06-04T07:08:23.390Z,13.17
2023-06-04T07:10:50.077Z,13.42
2023-06-04T07:13:17.229Z,13.45
2023-06-04T07:15:44.107Z,13.31
2023-06-04T07:18:10.972Z,13.62
2023-06-04T07:20:37.571Z,13.63
2023-06-04T07:23:04.593Z,14.51
2023-06-04T07:25:31.644Z,16.18
2023-06-04T07:28:04.849Z,16.20
2023-06-04T07:30:35.214Z,15.82
2023-06-04T07:33:01.857Z,15.49
2023-06-04T07:35:28.680Z,15.23
2023-06-04T07:37:55.755Z,14.81
2023-06-04T07:40:22.663Z,14.72
2023-06-04T07:42:49.530Z,14.74
2023-06-04T07:45:16.686Z,14.74
2023-06-04T07:47:44.458Z,14.66
2023-06-04T07:50:11.641Z,14.82
2023-06-04T07:52:38.136Z,15.20
2023-06-04T07:55:06.047Z,15.54
2023-06-04T07:57:33.144Z,15.22
2023-06-04T08:00:00.381Z,15.29
2023-06-04T08:02:27.669Z,15.41
2023-06-04T08:04:54.541Z,15.65
2023-06-04T08:07:21.010Z,15.61
2023-06-04T08:09:47.576Z,15.65
2023-06-04T08:12:14.483Z,15.68
2023-06-04T08:14:41.162Z,15.69
2023-06-04T08:17:07.793Z,16.01
2023-06-04T08:19:34.406Z,16.80
2023-06-04T08:22:01.288Z,17.10
2023-06-04T08:24:27.735Z,16.95
2023-06-04T08:26:54.227Z,16.65
2023-06-04T08:29:20.735Z,16.56
2023-06-04T08:31:47.676Z,16.60
2023-06-04T08:34:15.727Z,16.75
2023-06-04T08:36:42.414Z,16.77
2023-06-04T08:39:09.186Z,16.84
2023-06-04T08:41:44.278Z,16.96
2023-06-04T08:44:11.745Z,17.20
2023-06-04T08:46:41.950Z,17.19
2023-06-04T08:49:09.831Z,17.29
2023-06-04T08:51:41.744Z,17.12
2023-06-04T08:54:10.097Z,17.09
2023-06-04T08:56:37.229Z,17.55
2023-06-04T08:59:07.115Z,17.56
2023-06-04T09:01:35.373Z,17.49
2023-06-04T09:04:06.298Z,17.66
2023-06-04T09:06:34.244Z,17.80
2023-06-04T09:09:08.345Z,17.99
2023-06-04T09:11:38.675Z,18.17
2023-06-04T09:14:09.438Z,18.40
2023-06-04T09:16:45.859Z,18.34
2023-06-04T09:19:13.253Z,18.70
2023-06-04T09:22:00.264Z,18.62
2023-06-04T09:24:41.435Z,18.95
2023-06-04T09:27:15.556Z,18.97
2023-06-04T09:29:53.316Z,19.02
2023-06-04T09:32:31.627Z,18.93
2023-06-04T09:35:13.774Z,19.23
2023-06-04T09:37:41.626Z,19.38
2023-06-04T09:40:09.672Z,19.36
2023-06-04T09:42:47.506Z,19.40
2023-06-04T09:45:14.008Z,19.62
2023-06-04T09:47:44.944Z,19.63
2023-06-04T09:50:12.713Z,19.67
2023-06-04T09:52:40.978Z,19.40
2023-06-04T09:55:21.197Z,19.57
2023-06-04T09:57:49.683Z,19.65
2023-06-04T10:00:23.998Z,20.31
2023-06-04T10:02:57.693Z,20.57
2023-06-04T10:05:27.452Z,20.53
2023-06-04T10:07:58.087Z,20.56
2023-06-04T10:10:27.634Z,20.52
2023-06-04T10:13:02.402Z,20.63
2023-06-04T10:15:30.075Z,20.60
2023-06-04T10:17:57.966Z,21.17
2023-06-04T10:20:25.275Z,21.58
2023-06-04T10:22:52.489Z,23.53
2023-06-04T10:25:21.412Z,25.92
2023-06-04T10:27:51.512Z,27.89
2023-06-04T10:30:18.537Z,27.13
2023-06-04T10:32:46.042Z,28.84
2023-06-04T10:35:13.098Z,30.86
2023-06-04T10:37:40.395Z,31.23
2023-06-04T10:40:07.900Z,29.29
2023-06-04T10:42:40.489Z,29.33
2023-06-04T10:45:08.918Z,28.02
2023-06-04T10:47:38.608Z,27.57
2023-06-04T10:50:12.688Z,28.37
2023-06-04T10:52:52.388Z,29.84
2023-06-04T10:55:19.937Z,29.07
2023-06-04T10:58:04.893Z,27.17
2023-06-04T11:00:41.596Z,25.95
2023-06-04T11:03:10.711Z,25.26
2023-06-04T11:05:48.398Z,25.51
2023-06-04T11:08:27.057Z,26.09
2023-06-04T11:10:53.635Z,25.60
2023-06-04T11:13:25.869Z,26.18
2023-06-04T11:15:52.715Z,26.79
2023-06-04T11:18:21.709Z,26.87
2023-06-04T11:21:00.495Z,27.63
2023-06-04T11:23:27.260Z,26.39
2023-06-04T11:25:54.209Z,26.34
2023-06-04T11:28:22.856Z,26.03
2023-06-04T11:31:04.210Z,25.65
2023-06-04T11:33:31.294Z,26.62
2023-06-04T11:35:57.804Z,25.64
2023-06-04T11:38:25.160Z,25.51
2023-06-04T11:41:03.146Z,26.02
2023-06-04T11:43:30.299Z,26.62
2023-06-04T11:45:57.456Z,26.37
2023-06-04T11:48:24.551Z,24.38
2023-06-04T11:50:51.491Z,25.85
2023-06-04T11:53:18.471Z,25.79
2023-06-04T11:55:45.564Z,26.25
2023-06-04T11:58:12.573Z,26.10
2023-06-04T12:00:40.294Z,26.43
2023-06-04T12:03:07.544Z,26.04
2023-06-04T12:05:35.316Z,25.54
2023-06-04T12:08:10.917Z,24.82
2023-06-04T12:10:42.281Z,25.18
2023-06-04T12:13:09.527Z,24.89
2023-06-04T12:15:36.711Z,25.57
2023-06-04T12:18:06.506Z,25.01
2023-06-04T12:20:35.574Z,25.26
2023-06-04T12:23:02.342Z,25.96
2023-06-04T12:25:31.081Z,26.02
2023-06-04T12:27:57.955Z,26.23
2023-06-04T12:30:36.656Z,26.80
2023-06-04T12:33:03.631Z,25.86
2023-06-04T12:35:30.428Z,25.63
2023-06-04T12:37:57.280Z,26.29
2023-06-04T12:40:23.789Z,24.70
2023-06-04T12:42:53.311Z,25.16
2023-06-04T12:45:19.975Z,25.34
2023-06-04T12:47:48.466Z,25.93
2023-06-04T12:50:16.267Z,25.33
2023-06-04T12:52:43.110Z,25.93
2023-06-04T12:55:10.331Z,24.96
2023-06-04T12:57:37.195Z,25.55
2023-06-04T13:00:05.706Z,25.78
2023-06-04T13:02:32.842Z,25.41
2023-06-04T13:04:59.806Z,26.15
2023-06-04T13:07:28.305Z,26.22
2023-06-04T13:09:55.186Z,26.29
2023-06-04T13:12:21.945Z,26.21
2023-06-04T13:14:48.605Z,26.70
2023-06-04T13:17:22.405Z,26.80
2023-06-04T13:19:50.566Z,26.34
2023-06-04T13:22:17.209Z,26.87
2023-06-04T13:24:43.892Z,26.76
2023-06-04T13:27:10.657Z,25.90
2023-06-04T13:29:37.452Z,25.73
2023-06-04T13:32:04.887Z,24.70
2023-06-04T13:34:33.171Z,25.02
2023-06-04T13:37:00.111Z,25.56
2023-06-04T13:39:27.109Z,26.19
2023-06-04T13:41:53.656Z,26.72
2023-06-04T13:44:21.384Z,26.87
2023-06-04T13:46:47.926Z,26.42
2023-06-04T13:49:14.436Z,25.77
2023-06-04T13:51:41.613Z,25.69
2023-06-04T13:54:09.738Z,25.35
2023-06-04T13:56:37.549Z,25.41
2023-06-04T13:59:04.140Z,26.47
2023-06-04T14:01:30.961Z,26.06
2023-06-04T14:03:59.630Z,24.99
2023-06-04T14:06:26.915Z,25.14
2023-06-04T14:08:53.676Z,25.86
2023-06-04T14:11:20.472Z,26.03
2023-06-04T14:13:47.324Z,26.24
2023-06-04T14:16:14.847Z,25.67
2023-06-04T14:18:41.523Z,25.62
2023-06-04T14:21:08.714Z,25.63
2023-06-04T14:23:36.333Z,25.19
2023-06-04T14:26:03.949Z,25.66
2023-06-04T14:28:31.336Z,25.85
2023-06-04T14:30:59.553Z,26.08
2023-06-04T14:33:26.373Z,25.79
2023-06-04T14:35:53.112Z,25.35
2023-06-04T14:38:20.098Z,25.63
2023-06-04T14:40:46.685Z,25.87
2023-06-04T14:43:14.009Z,26.27
2023-06-04T14:45:41.569Z,25.68
2023-06-04T14:48:15.309Z,25.83
2023-06-04T14:50:44.085Z,26.65
2023-06-04T14:53:12.672Z,27.03
2023-06-04T14:55:39.888Z,26.52
2023-06-04T14:58:06.770Z,25.93
2023-06-04T15:00:34.012Z,26.05
2023-06-04T15:03:03.146Z,26.75
2023-06-04T15:05:30.148Z,26.87
2023-06-04T15:07:56.498Z,26.30
2023-06-04T15:10:23.004Z,27.11
2023-06-04T15:12:49.945Z,26.68
2023-06-04T15:15:16.585Z,26.52
2023-06-04T15:17:45.502Z,26.10
2023-06-04T15:20:13.698Z,26.38
2023-06-04T15:22:41.067Z,26.44
2023-06-04T15:25:07.928Z,25.29
2023-06-04T15:27:35.434Z,25.68
2023-06-04T15:30:02.681Z,25.54
2023-06-04T15:32:30.222Z,25.88
2023-06-04T15:34:58.849Z,25.88
2023-06-04T15:37:25.339Z,26.18
2023-06-04T15:39:51.829Z,26.27
2023-06-04T15:42:18.303Z,26.01
2023-06-04T15:44:45.411Z,25.82
2023-06-04T15:47:11.821Z,25.70
2023-06-04T15:49:38.860Z,25.93
2023-06-04T15:52:05.546Z,25.80
2023-06-04T15:54:45.280Z,25.78
2023-06-04T15:57:13.862Z,25.62
2023-06-04T15:59:42.651Z,25.39
2023-06-04T16:02:12.234Z,25.53
2023-06-04T16:04:39.186Z,25.79
2023-06-04T16:07:06.222Z,25.68
2023-06-04T16:09:32.969Z,25.89
2023-06-04T16:12:00.386Z,25.60
2023-06-04T16:14:27.225Z,25.49
2023-06-04T16:16:54.454Z,25.33
2023-06-04T16:19:21.038Z,25.38
2023-06-04T16:21:47.550Z,24.96
2023-06-04T16:24:14.237Z,25.71
2023-06-04T16:26:40.895Z,26.27
2023-06-04T16:29:07.805Z,26.25
2023-06-04T16:31:34.339Z,26.12
2023-06-04T16:34:01.417Z,25.24
2023-06-04T16:36:28.354Z,25.84
2023-06-04T16:38:55.157Z,25.79
2023-06-04T16:41:22.841Z,26.27
2023-06-04T16:43:49.609Z,25.84
2023-06-04T16:46:16.683Z,25.58
2023-06-04T16:48:43.805Z,25.07
2023-06-04T16:51:11.716Z,25.24
2023-06-04T16:53:38.445Z,26.11
2023-06-04T16:56:05.715Z,26.39
2023-06-04T16:58:35.569Z,25.98
2023-06-04T17:01:03.533Z,25.59
2023-06-04T17:03:30.357Z,25.10
2023-06-04T17:05:56.813Z,25.19
2023-06-04T17:08:23.667Z,25.23
2023-06-04T17:10:50.749Z,25.28
2023-06-04T17:13:18.128Z,25.90
2023-06-04T17:15:44.908Z,25.59
2023-06-04T17:18:12.479Z,25.51
2023-06-04T17:20:39.636Z,25.65
2023-06-04T17:23:25.006Z,25.82
2023-06-04T17:25:52.876Z,25.74
2023-06-04T17:28:19.843Z,26.00
2023-06-04T17:30:46.803Z,25.86
2023-06-04T17:33:14.279Z,25.63
2023-06-04T17:35:40.954Z,25.62
2023-06-04T17:38:07.766Z,25.63
2023-06-04T17:40:34.704Z,25.46
2023-06-04T17:43:02.014Z,25.79
2023-06-04T17:45:28.733Z,25.64
2023-06-04T17:47:56.805Z,25.64
2023-06-04T17:50:23.638Z,25.53
2023-06-04T17:52:50.868Z,25.27
2023-06-04T17:55:18.124Z,25.40
2023-06-04T17:57:44.545Z,24.77
2023-06-04T18:00:11.779Z,25.01
2023-06-04T18:02:38.714Z,24.67
2023-06-04T18:05:05.891Z,24.44
2023-06-04T18:07:32.616Z,24.63
2023-06-04T18:09:59.730Z,24.74
2023-06-04T18:12:26.279Z,24.61
2023-06-04T18:14:52.654Z,24.27
2023-06-04T18:17:19.204Z,24.33
2023-06-04T18:19:46.033Z,24.59
2023-06-04T18:22:12.539Z,24.78
2023-06-04T18:24:39.172Z,24.02
2023-06-04T18:27:06.720Z,23.43
2023-06-04T18:29:34.313Z,23.46
2023-06-04T18:32:01.604Z,23.13
2023-06-04T18:34:29.435Z,22.79
2023-06-04T18:36:57.642Z,22.69
2023-06-04T18:39:25.437Z,22.69
2023-06-04T18:41:55.209Z,22.40
2023-06-04T18:44:22.436Z,22.33
2023-06-04T18:46:50.087Z,22.11
2023-06-04T18:49:18.037Z,22.19
2023-06-04T18:51:44.455Z,21.97
2023-06-04T18:54:11.145Z,21.47
2023-06-04T18:56:37.726Z,21.53
2023-06-04T18:59:04.382Z,21.35
2023-06-04T19:01:31.680Z,20.97
2023-06-04T19:03:58.228Z,21.05
2023-06-04T19:06:25.393Z,20.85
2023-06-04T19:08:51.985Z,20.36
2023-06-04T19:11:18.766Z,20.37
2023-06-04T19:13:45.226Z,20.40
2023-06-04T19:16:14.865Z,20.25
2023-06-04T19:18:41.916Z,19.92
2023-06-04T19:21:08.614Z,19.82
2023-06-04T19:23:35.594Z,19.47
2023-06-04T19:26:02.709Z,19.36
2023-06-04T19:28:29.182Z,19.23
2023-06-04T19:30:56.056Z,19.07
2023-06-04T19:33:22.986Z,19.03
2023-06-04T19:35:49.794Z,18.99
2023-06-04T19:38:16.484Z,18.74
2023-06-04T19:40:43.400Z,18.50
2023-06-04T19:43:10.847Z,18.41
2023-06-04T19:45:38.107Z,18.25
2023-06-04T19:48:04.896Z,18.32
2023-06-04T19:50:31.723Z,18.41
2023-06-04T19:52:58.943Z,18.20
2023-06-04T19:55:25.429Z,18.14
2023-06-04T19:57:53.378Z,18.11
2023-06-04T20:00:19.838Z,17.89
2023-06-04T20:02:46.989Z,17.92
2023-06-04T20:05:16.641Z,17.77
2023-06-04T20:07:44.230Z,17.69
2023-06-04T20:10:11.360Z,17.50
2023-06-04T20:12:38.473Z,17.40
2023-06-04T20:15:05.825Z,17.38
2023-06-04T20:17:32.348Z,17.29
2023-06-04T20:19:59.228Z,17.25
2023-06-04T20:22:26.136Z,17.07
2023-06-04T20:24:52.910Z,16.73
2023-06-04T20:27:19.727Z,16.71
2023-06-04T20:29:46.989Z,16.62
2023-06-04T20:32:13.372Z,16.58
2023-06-04T20:34:40.601Z,16.50
2023-06-04T20:37:07.336Z,16.39
2023-06-04T20:39:38.333Z,16.26
2023-06-04T20:42:05.863Z,16.22
2023-06-04T20:44:33.162Z,16.14
2023-06-04T20:46:59.927Z,16.13
2023-06-04T20:49:26.627Z,16.09
2023-06-04T20:51:53.894Z,16.06
2023-06-04T20:54:20.507Z,15.92
2023-06-04T20:56:48.167Z,15.99
2023-06-04T20:59:15.928Z,16.01
2023-06-04T21:01:42.665Z,15.80
2023-06-04T21:04:11.593Z,15.60
2023-06-04T21:06:38.627Z,15.65
2023-06-04T21:09:07.452Z,15.54
2023-06-04T21:11:34.164Z,15.51
2023-06-04T21:14:00.647Z,15.44
2023-06-04T21:16:27.301Z,15.29
2023-06-04T21:18:54.278Z,15.24
2023-06-04T21:21:21.527Z,15.20
2023-06-04T21:23:48.523Z,15.23
2023-06-04T21:26:15.511Z,15.13
2023-06-04T21:28:42.114Z,15.03
2023-06-04T21:31:09.449Z,15.04
2023-06-04T21:33:36.428Z,14.95
2023-06-04T21:36:03.787Z,14.94
2023-06-04T21:38:30.337Z,14.94
2023-06-04T21:40:57.216Z,14.91
2023-06-04T21:43:24.365Z,14.90
2023-06-04T21:45:51.564Z,14.83
2023-06-04T21:48:18.960Z,14.83
2023-06-04T21:50:45.864Z,14.71
2023-06-04T21:53:14.482Z,14.65
2023-06-04T21:55:41.580Z,14.65
2023-06-04T21:58:09.120Z,14.58
2023-06-04T22:00:35.837Z,14.44
2023-06-04T22:03:02.787Z,14.45
2023-06-04T22:05:30.018Z,14.47
2023-06-04T22:07:56.830Z,14.34
2023-06-04T22:10:23.728Z,14.23
2023-06-04T22:12:50.657Z,14.27
2023-06-04T22:15:17.247Z,14.14
2023-06-04T22:17:43.946Z,14.05
2023-06-04T22:20:10.896Z,13.92
2023-06-04T22:22:37.996Z,13.95
2023-06-04T22:25:04.766Z,13.86
2023-06-04T22:27:31.502Z,13.91
2023-06-04T22:29:58.384Z,13.87
2023-06-04T22:32:24.847Z,13.83
2023-06-04T22:34:51.319Z,13.75
2023-06-04T22:37:17.809Z,13.57
2023-06-04T22:39:45.374Z,13.44
2023-06-04T22:42:12.480Z,13.43
2023-06-04T22:44:39.895Z,13.46
2023-06-04T22:47:06.636Z,13.48
2023-06-04T22:49:33.196Z,13.54
2023-06-04T22:52:00.161Z,13.59
2023-06-04T22:54:27.190Z,13.51
2023-06-04T22:56:53.694Z,13.59
2023-06-04T22:59:20.306Z,13.48
2023-06-04T23:01:47.090Z,13.43
2023-06-04T23:04:13.760Z,13.41
2023-06-04T23:06:40.221Z,13.50
2023-06-04T23:09:06.900Z,13.40
2023-06-04T23:11:34.147Z,13.29
2023-06-04T23:14:00.879Z,13.23
2023-06-04T23:16:27.370Z,13.22
2023-06-04T23:18:54.963Z,13.16
2023-06-04T23:21:21.658Z,13.19
2023-06-04T23:23:48.943Z,13.20
2023-06-04T23:26:16.202Z,13.21
2023-06-04T23:28:42.888Z,13.23
2023-06-04T23:31:09.539Z,13.27
2023-06-04T23:33:36.519Z,13.36
2023-06-04T23:36:03.153Z,13.44
2023-06-04T23:38:29.700Z,13.52
2023-06-04T23:40:56.136Z,13.49
2023-06-04T23:43:22.883Z,13.41
2023-06-04T23:45:50.927Z,13.32
2023-06-04T23:48:18.099Z,13.24
2023-06-04T23:50:44.682Z,13.10
2023-06-04T23:53:11.261Z,13.03
2023-06-04T23:55:39.704Z,13.11
2023-06-04T23:58:06.818Z,13.22
